sensor_id;sensor_type;location;lat;lon;timestamp;pressure;altitude;pressure_sealevel;temperature;humidity
77207;BME280;66190;50.708;7.906;2023-07-08T00:00:23;96586.25;;;20.57;42.67
77207;BME280;66190;50.708;7.906;2023-07-08T00:02:49;96583.56;;;20.62;42.29
77207;BME280;66190;50.708;7.906;2023-07-08T00:05:17;96577.56;;;20.65;42.19
77207;BME280;66190;50.708;7.906;2023-07-08T00:07:44;96572.38;;;20.68;42.29
77207;BME280;66190;50.708;7.906;2023-07-08T00:10:22;96574.06;;;20.69;42.72
77207;BME280;66190;50.708;7.906;2023-07-08T00:12:50;96579.16;;;20.61;43.72
77207;BME280;66190;50.708;7.906;2023-07-08T00:15:16;96570.16;;;20.60;43.09
77207;BME280;66190;50.708;7.906;2023-07-08T00:17:43;96570.72;;;20.62;42.72
77207;BME280;66190;50.708;7.906;2023-07-08T00:20:20;96569.84;;;20.57;43.63
77207;BME280;66190;50.708;7.906;2023-07-08T00:22:46;96563.53;;;20.51;43.82
77207;BME280;66190;50.708;7.906;2023-07-08T00:25:17;96570.31;;;20.49;43.47
77207;BME280;66190;50.708;7.906;2023-07-08T00:27:45;96561.28;;;20.43;43.96
77207;BME280;66190;50.708;7.906;2023-07-08T00:30:19;96562.06;;;20.39;43.50
77207;BME280;66190;50.708;7.906;2023-07-08T00:32:45;96561.75;;;20.35;44.23
77207;BME280;66190;50.708;7.906;2023-07-08T00:35:11;96562.00;;;20.33;44.23
77207;BME280;66190;50.708;7.906;2023-07-08T00:37:36;96560.34;;;20.27;45.17
77207;BME280;66190;50.708;7.906;2023-07-08T00:40:21;96564.41;;;20.25;44.32
77207;BME280;66190;50.708;7.906;2023-07-08T00:42:48;96553.22;;;20.26;43.73
77207;BME280;66190;50.708;7.906;2023-07-08T00:48:07;96563.84;;;20.23;44.78
77207;BME280;66190;50.708;7.906;2023-07-08T00:50:34;96564.56;;;20.13;45.61
77207;BME280;66190;50.708;7.906;2023-07-08T00:53:35;96568.84;;;20.04;46.04
77207;BME280;66190;50.708;7.906;2023-07-08T00:56:09;96560.03;;;19.97;44.93
77207;BME280;66190;50.708;7.906;2023-07-08T00:58:46;96559.41;;;19.90;46.24
77207;BME280;66190;50.708;7.906;2023-07-08T01:01:12;96559.63;;;19.84;46.84
77207;BME280;66190;50.708;7.906;2023-07-08T01:03:47;96548.09;;;19.77;45.78
77207;BME280;66190;50.708;7.906;2023-07-08T01:06:15;96546.16;;;19.77;45.88
77207;BME280;66190;50.708;7.906;2023-07-08T01:08:41;96549.94;;;19.71;45.99
77207;BME280;66190;50.708;7.906;2023-07-08T01:11:06;96550.25;;;19.75;45.42
77207;BME280;66190;50.708;7.906;2023-07-08T01:13:37;96539.84;;;19.72;45.67
77207;BME280;66190;50.708;7.906;2023-07-08T01:16:05;96546.63;;;19.69;45.65
77207;BME280;66190;50.708;7.906;2023-07-08T01:18:31;96550.72;;;19.67;46.81
77207;BME280;66190;50.708;7.906;2023-07-08T01:21:03;96545.28;;;19.67;45.80
77207;BME280;66190;50.708;7.906;2023-07-08T01:23:32;96544.69;;;19.65;45.91
77207;BME280;66190;50.708;7.906;2023-07-08T01:25:59;96544.44;;;19.66;46.21
77207;BME280;66190;50.708;7.906;2023-07-08T01:28:25;96544.69;;;19.65;45.57
77207;BME280;66190;50.708;7.906;2023-07-08T01:30:51;96543.56;;;19.61;45.68
77207;BME280;66190;50.708;7.906;2023-07-08T01:33:20;96543.75;;;19.54;46.77
77207;BME280;66190;50.708;7.906;2023-07-08T01:35:47;96541.47;;;19.46;48.04
77207;BME280;66190;50.708;7.906;2023-07-08T01:38:16;96542.63;;;19.50;46.33
77207;BME280;66190;50.708;7.906;2023-07-08T01:40:52;96542.94;;;19.54;45.89
77207;BME280;66190;50.708;7.906;2023-07-08T01:43:18;96538.03;;;19.56;45.42
77207;BME280;66190;50.708;7.906;2023-07-08T01:45:44;96536.19;;;19.61;45.42
77207;BME280;66190;50.708;7.906;2023-07-08T01:48:13;96535.94;;;19.63;45.99
77207;BME280;66190;50.708;7.906;2023-07-08T01:51:05;96526.34;;;19.60;45.61
77207;BME280;66190;50.708;7.906;2023-07-08T01:53:36;96538.63;;;19.58;47.06
77207;BME280;66190;50.708;7.906;2023-07-08T01:56:03;96524.41;;;19.56;46.14
77207;BME280;66190;50.708;7.906;2023-07-08T01:58:30;96518.69;;;19.57;45.80
77207;BME280;66190;50.708;7.906;2023-07-08T02:00:55;96516.78;;;19.58;45.68
77207;BME280;66190;50.708;7.906;2023-07-08T02:03:21;96505.84;;;19.58;45.60
77207;BME280;66190;50.708;7.906;2023-07-08T02:05:46;96513.75;;;19.54;46.68
77207;BME280;66190;50.708;7.906;2023-07-08T02:08:12;96511.00;;;19.54;46.39
77207;BME280;66190;50.708;7.906;2023-07-08T02:10:39;96508.78;;;19.51;45.92
77207;BME280;66190;50.708;7.906;2023-07-08T02:13:05;96512.91;;;19.54;45.90
77207;BME280;66190;50.708;7.906;2023-07-08T02:15:31;96504.44;;;19.55;45.56
77207;BME280;66190;50.708;7.906;2023-07-08T02:17:56;96504.19;;;19.57;45.59
77207;BME280;66190;50.708;7.906;2023-07-08T02:20:22;96500.41;;;19.58;45.49
77207;BME280;66190;50.708;7.906;2023-07-08T02:22:47;96503.88;;;19.53;46.21
77207;BME280;66190;50.708;7.906;2023-07-08T02:25:13;96494.91;;;19.53;46.73
77207;BME280;66190;50.708;7.906;2023-07-08T02:27:38;96501.09;;;19.48;46.46
77207;BME280;66190;50.708;7.906;2023-07-08T02:30:05;96493.75;;;19.49;45.38
77207;BME280;66190;50.708;7.906;2023-07-08T02:32:31;96492.97;;;19.53;45.54
77207;BME280;66190;50.708;7.906;2023-07-08T02:34:59;96488.34;;;19.54;45.16
77207;BME280;66190;50.708;7.906;2023-07-08T02:37:25;96487.81;;;19.57;45.19
77207;BME280;66190;50.708;7.906;2023-07-08T02:39:51;96492.47;;;19.56;45.40
77207;BME280;66190;50.708;7.906;2023-07-08T02:42:16;96491.38;;;19.57;45.60
77207;BME280;66190;50.708;7.906;2023-07-08T02:44:42;96486.19;;;19.56;45.59
77207;BME280;66190;50.708;7.906;2023-07-08T02:47:07;96481.00;;;19.54;45.31
77207;BME280;66190;50.708;7.906;2023-07-08T02:49:32;96485.34;;;19.55;45.26
77207;BME280;66190;50.708;7.906;2023-07-08T02:51:58;96490.28;;;19.58;45.06
77207;BME280;66190;50.708;7.906;2023-07-08T02:54:23;96486.19;;;19.56;45.99
77207;BME280;66190;50.708;7.906;2023-07-08T02:56:48;96485.56;;;19.49;45.58
77207;BME280;66190;50.708;7.906;2023-07-08T02:59:14;96481.19;;;19.48;45.87
77207;BME280;66190;50.708;7.906;2023-07-08T03:01:39;96476.53;;;19.48;45.22
77207;BME280;66190;50.708;7.906;2023-07-08T03:04:10;96477.63;;;19.47;45.68
77207;BME280;66190;50.708;7.906;2023-07-08T03:06:42;96486.66;;;19.48;45.86
77207;BME280;66190;50.708;7.906;2023-07-08T03:09:07;96488.78;;;19.41;47.20
77207;BME280;66190;50.708;7.906;2023-07-08T03:11:34;96490.13;;;19.43;46.46
77207;BME280;66190;50.708;7.906;2023-07-08T03:13:59;96490.94;;;19.39;46.66
77207;BME280;66190;50.708;7.906;2023-07-08T03:16:24;96495.22;;;19.35;47.05
77207;BME280;66190;50.708;7.906;2023-07-08T03:18:50;96490.63;;;19.35;46.71
77207;BME280;66190;50.708;7.906;2023-07-08T03:21:16;96497.38;;;19.33;47.62
77207;BME280;66190;50.708;7.906;2023-07-08T03:23:42;96502.50;;;19.29;47.48
77207;BME280;66190;50.708;7.906;2023-07-08T03:26:13;96498.41;;;19.27;47.46
77207;BME280;66190;50.708;7.906;2023-07-08T03:28:39;96506.53;;;19.21;47.45
77207;BME280;66190;50.708;7.906;2023-07-08T03:31:10;96500.25;;;19.21;47.67
77207;BME280;66190;50.708;7.906;2023-07-08T03:33:36;96500.19;;;19.16;48.92
77207;BME280;66190;50.708;7.906;2023-07-08T03:36:03;96499.09;;;19.17;48.02
77207;BME280;66190;50.708;7.906;2023-07-08T03:38:31;96512.69;;;19.12;48.21
77207;BME280;66190;50.708;7.906;2023-07-08T03:40:57;96506.66;;;19.10;48.13
77207;BME280;66190;50.708;7.906;2023-07-08T03:43:22;96515.34;;;19.07;48.67
77207;BME280;66190;50.708;7.906;2023-07-08T03:45:47;96521.63;;;19.07;48.65
77207;BME280;66190;50.708;7.906;2023-07-08T03:48:13;96523.59;;;19.12;48.25
77207;BME280;66190;50.708;7.906;2023-07-08T03:50:39;96520.59;;;19.13;47.85
77207;BME280;66190;50.708;7.906;2023-07-08T03:53:04;96525.06;;;19.19;47.81
77207;BME280;66190;50.708;7.906;2023-07-08T03:55:30;96523.44;;;19.23;47.57
77207;BME280;66190;50.708;7.906;2023-07-08T03:57:55;96531.72;;;19.29;46.79
77207;BME280;66190;50.708;7.906;2023-07-08T04:00:21;96528.50;;;19.32;47.67
77207;BME280;66190;50.708;7.906;2023-07-08T04:02:46;96528.56;;;19.37;46.44
77207;BME280;66190;50.708;7.906;2023-07-08T04:05:20;96528.28;;;19.38;46.55
77207;BME280;66190;50.708;7.906;2023-07-08T04:07:46;96531.59;;;19.40;46.45
77207;BME280;66190;50.708;7.906;2023-07-08T04:10:12;96532.75;;;19.44;46.40
77207;BME280;66190;50.708;7.906;2023-07-08T04:12:38;96533.81;;;19.43;47.29
77207;BME280;66190;50.708;7.906;2023-07-08T04:15:05;96525.88;;;19.42;46.74
77207;BME280;66190;50.708;7.906;2023-07-08T04:17:30;96523.47;;;19.45;46.76
77207;BME280;66190;50.708;7.906;2023-07-08T04:19:56;96530.06;;;19.49;46.91
77207;BME280;66190;50.708;7.906;2023-07-08T04:22:22;96525.72;;;19.53;46.86
77207;BME280;66190;50.708;7.906;2023-07-08T04:24:47;96533.97;;;19.58;46.00
77207;BME280;66190;50.708;7.906;2023-07-08T04:27:15;96538.09;;;19.61;46.69
77207;BME280;66190;50.708;7.906;2023-07-08T04:29:41;96537.56;;;19.64;46.06
77207;BME280;66190;50.708;7.906;2023-07-08T04:32:07;96541.44;;;19.68;46.09
77207;BME280;66190;50.708;7.906;2023-07-08T04:34:32;96532.72;;;19.71;45.75
77207;BME280;66190;50.708;7.906;2023-07-08T04:36:58;96537.13;;;19.72;47.07
77207;BME280;66190;50.708;7.906;2023-07-08T04:39:23;96538.22;;;19.76;45.87
77207;BME280;66190;50.708;7.906;2023-07-08T04:41:48;96530.34;;;19.79;45.76
77207;BME280;66190;50.708;7.906;2023-07-08T04:44:14;96536.69;;;19.85;45.00
77207;BME280;66190;50.708;7.906;2023-07-08T04:46:54;96537.84;;;19.89;45.69
77207;BME280;66190;50.708;7.906;2023-07-08T04:49:22;96540.03;;;19.92;46.32
77207;BME280;66190;50.708;7.906;2023-07-08T04:51:48;96538.44;;;19.96;45.78
77207;BME280;66190;50.708;7.906;2023-07-08T04:54:13;96537.38;;;20.02;45.57
77207;BME280;66190;50.708;7.906;2023-07-08T04:56:45;96539.94;;;20.08;46.16
77207;BME280;66190;50.708;7.906;2023-07-08T04:59:16;96544.09;;;20.16;46.26
77207;BME280;66190;50.708;7.906;2023-07-08T05:01:42;96538.97;;;20.24;45.61
77207;BME280;66190;50.708;7.906;2023-07-08T05:04:10;96541.50;;;20.31;45.95
77207;BME280;66190;50.708;7.906;2023-07-08T05:06:36;96548.66;;;20.37;46.13
77207;BME280;66190;50.708;7.906;2023-07-08T05:09:03;96543.53;;;20.46;45.61
77207;BME280;66190;50.708;7.906;2023-07-08T05:11:29;96541.09;;;20.49;46.50
77207;BME280;66190;50.708;7.906;2023-07-08T05:13:55;96540.84;;;20.56;45.63
77207;BME280;66190;50.708;7.906;2023-07-08T05:16:20;96536.81;;;20.63;45.77
77207;BME280;66190;50.708;7.906;2023-07-08T05:18:46;96542.56;;;20.67;46.14
77207;BME280;66190;50.708;7.906;2023-07-08T05:21:12;96537.13;;;20.72;45.53
77207;BME280;66190;50.708;7.906;2023-07-08T05:23:38;96532.78;;;20.76;45.47
77207;BME280;66190;50.708;7.906;2023-07-08T05:26:04;96528.69;;;20.78;46.37
77207;BME280;66190;50.708;7.906;2023-07-08T05:28:30;96524.34;;;20.82;45.54
77207;BME280;66190;50.708;7.906;2023-07-08T05:30:56;96527.66;;;20.89;45.84
77207;BME280;66190;50.708;7.906;2023-07-08T05:33:26;96523.38;;;20.98;46.08
77207;BME280;66190;50.708;7.906;2023-07-08T05:35:52;96521.22;;;21.05;45.25
77207;BME280;66190;50.708;7.906;2023-07-08T05:38:18;96533.53;;;21.08;45.71
77207;BME280;66190;50.708;7.906;2023-07-08T05:40:43;96526.16;;;21.13;45.86
77207;BME280;66190;50.708;7.906;2023-07-08T05:43:13;96524.28;;;21.19;45.31
77207;BME280;66190;50.708;7.906;2023-07-08T05:45:38;96533.31;;;21.14;45.65
77207;BME280;66190;50.708;7.906;2023-07-08T05:48:04;96531.94;;;21.22;45.10
77207;BME280;66190;50.708;7.906;2023-07-08T05:50:29;96530.06;;;21.22;45.33
77207;BME280;66190;50.708;7.906;2023-07-08T05:52:55;96527.03;;;21.24;45.62
77207;BME280;66190;50.708;7.906;2023-07-08T05:55:20;96520.47;;;21.25;45.75
77207;BME280;66190;50.708;7.906;2023-07-08T05:57:45;96518.28;;;21.27;46.00
77207;BME280;66190;50.708;7.906;2023-07-08T06:00:11;96520.72;;;21.23;45.55
77207;BME280;66190;50.708;7.906;2023-07-08T06:02:36;96528.94;;;21.23;44.29
77207;BME280;66190;50.708;7.906;2023-07-08T06:05:02;96524.59;;;21.27;45.24
77207;BME280;66190;50.708;7.906;2023-07-08T06:07:27;96534.72;;;21.32;45.58
77207;BME280;66190;50.708;7.906;2023-07-08T06:09:53;96538.31;;;21.37;45.28
77207;BME280;66190;50.708;7.906;2023-07-08T06:12:21;96536.97;;;21.45;45.77
77207;BME280;66190;50.708;7.906;2023-07-08T06:14:46;96532.34;;;21.51;45.76
77207;BME280;66190;50.708;7.906;2023-07-08T06:17:12;96526.59;;;21.52;45.90
77207;BME280;66190;50.708;7.906;2023-07-08T06:19:37;96529.91;;;21.59;45.70
77207;BME280;66190;50.708;7.906;2023-07-08T06:22:03;96536.50;;;21.63;46.29
77207;BME280;66190;50.708;7.906;2023-07-08T06:24:28;96544.72;;;21.68;46.16
77207;BME280;66190;50.708;7.906;2023-07-08T06:26:53;96546.63;;;21.73;45.52
77207;BME280;66190;50.708;7.906;2023-07-08T06:29:19;96548.28;;;21.74;45.75
77207;BME280;66190;50.708;7.906;2023-07-08T06:31:44;96550.22;;;21.73;44.73
77207;BME280;66190;50.708;7.906;2023-07-08T06:34:10;96546.91;;;21.71;45.07
77207;BME280;66190;50.708;7.906;2023-07-08T06:36:35;96549.38;;;21.73;44.17
77207;BME280;66190;50.708;7.906;2023-07-08T06:39:01;96542.78;;;21.74;44.28
77207;BME280;66190;50.708;7.906;2023-07-08T06:41:26;96548.88;;;21.81;44.86
77207;BME280;66190;50.708;7.906;2023-07-08T06:43:52;96552.72;;;21.90;45.24
77207;BME280;66190;50.708;7.906;2023-07-08T06:46:19;96556.31;;;21.95;45.09
77207;BME280;66190;50.708;7.906;2023-07-08T06:48:44;96558.78;;;22.07;43.96
77207;BME280;66190;50.708;7.906;2023-07-08T06:51:09;96558.78;;;22.12;45.40
77207;BME280;66190;50.708;7.906;2023-07-08T06:53:35;96555.78;;;22.23;43.54
77207;BME280;66190;50.708;7.906;2023-07-08T06:56:00;96554.69;;;22.24;43.04
77207;BME280;66190;50.708;7.906;2023-07-08T06:58:27;96556.06;;;22.32;43.33
77207;BME280;66190;50.708;7.906;2023-07-08T07:03:18;96549.47;;;22.38;44.01
77207;BME280;66190;50.708;7.906;2023-07-08T07:05:44;96547.28;;;22.35;43.75
77207;BME280;66190;50.708;7.906;2023-07-08T07:08:09;96561.00;;;22.35;43.47
77207;BME280;66190;50.708;7.906;2023-07-08T07:10:35;96569.78;;;22.37;43.49
77207;BME280;66190;50.708;7.906;2023-07-08T07:13:00;96570.88;;;22.36;43.71
77207;BME280;66190;50.708;7.906;2023-07-08T07:15:26;96563.47;;;22.31;42.70
77207;BME280;66190;50.708;7.906;2023-07-08T07:17:51;96564.28;;;22.37;43.40
77207;BME280;66190;50.708;7.906;2023-07-08T07:20:17;96567.03;;;22.47;43.57
77207;BME280;66190;50.708;7.906;2023-07-08T07:22:42;96562.09;;;22.44;44.27
77207;BME280;66190;50.708;7.906;2023-07-08T07:25:08;96568.97;;;22.51;44.16
77207;BME280;66190;50.708;7.906;2023-07-08T07:27:36;96561.84;;;22.56;43.03
77207;BME280;66190;50.708;7.906;2023-07-08T07:30:02;96559.63;;;22.68;42.82
77207;BME280;66190;50.708;7.906;2023-07-08T07:32:28;96559.09;;;22.71;43.07
77207;BME280;66190;50.708;7.906;2023-07-08T07:34:55;96561.25;;;22.79;42.85
77207;BME280;66190;50.708;7.906;2023-07-08T07:37:21;96563.16;;;22.83;42.21
77207;BME280;66190;50.708;7.906;2023-07-08T07:39:47;96571.13;;;22.95;41.95
77207;BME280;66190;50.708;7.906;2023-07-08T07:42:14;96575.22;;;22.97;42.18
77207;BME280;66190;50.708;7.906;2023-07-08T07:44:40;96578.22;;;23.06;40.61
77207;BME280;66190;50.708;7.906;2023-07-08T07:47:07;96571.34;;;23.13;40.75
77207;BME280;66190;50.708;7.906;2023-07-08T07:49:32;96569.38;;;23.24;40.24
77207;BME280;66190;50.708;7.906;2023-07-08T07:51:58;96574.06;;;23.33;40.32
77207;BME280;66190;50.708;7.906;2023-07-08T07:54:24;96580.59;;;23.42;40.77
77207;BME280;66190;50.708;7.906;2023-07-08T07:56:49;96569.56;;;23.57;40.73
77207;BME280;66190;50.708;7.906;2023-07-08T07:59:14;96570.59;;;23.67;41.22
77207;BME280;66190;50.708;7.906;2023-07-08T08:01:40;96568.94;;;23.71;40.42
77207;BME280;66190;50.708;7.906;2023-07-08T08:04:07;96561.72;;;23.85;39.83
77207;BME280;66190;50.708;7.906;2023-07-08T08:06:33;96562.75;;;23.99;39.39
77207;BME280;66190;50.708;7.906;2023-07-08T08:08:59;96566.34;;;23.99;38.78
77207;BME280;66190;50.708;7.906;2023-07-08T08:11:24;96568.38;;;24.22;38.87
77207;BME280;66190;50.708;7.906;2023-07-08T08:13:51;96567.25;;;24.28;39.18
77207;BME280;66190;50.708;7.906;2023-07-08T08:16:17;96571.81;;;24.43;39.02
77207;BME280;66190;50.708;7.906;2023-07-08T08:18:42;96576.41;;;24.52;38.06
77207;BME280;66190;50.708;7.906;2023-07-08T08:21:08;96577.25;;;24.53;37.77
77207;BME280;66190;50.708;7.906;2023-07-08T08:23:33;96580.28;;;24.51;38.96
77207;BME280;66190;50.708;7.906;2023-07-08T08:25:59;96581.03;;;24.57;40.45
77207;BME280;66190;50.708;7.906;2023-07-08T08:28:24;96586.47;;;24.67;39.75
77207;BME280;66190;50.708;7.906;2023-07-08T08:30:50;96585.41;;;24.63;39.93
77207;BME280;66190;50.708;7.906;2023-07-08T08:33:16;96593.59;;;24.68;40.37
77207;BME280;66190;50.708;7.906;2023-07-08T08:35:45;96590.06;;;24.62;39.69
77207;BME280;66190;50.708;7.906;2023-07-08T08:38:10;96590.38;;;24.61;39.95
77207;BME280;66190;50.708;7.906;2023-07-08T08:40:36;96594.78;;;24.62;41.10
77207;BME280;66190;50.708;7.906;2023-07-08T08:43:04;96583.16;;;24.70;40.25
77207;BME280;66190;50.708;7.906;2023-07-08T08:45:46;96583.78;;;24.62;39.71
77207;BME280;66190;50.708;7.906;2023-07-08T08:48:15;96577.94;;;24.68;40.92
77207;BME280;66190;50.708;7.906;2023-07-08T08:50:44;96578.53;;;24.60;39.00
77207;BME280;66190;50.708;7.906;2023-07-08T08:53:17;96584.56;;;24.62;39.73
77207;BME280;66190;50.708;7.906;2023-07-08T08:55:51;96581.75;;;24.73;39.96
77207;BME280;66190;50.708;7.906;2023-07-08T08:58:33;96585.59;;;24.77;38.92
77207;BME280;66190;50.708;7.906;2023-07-08T09:01:06;96578.97;;;24.78;39.40
77207;BME280;66190;50.708;7.906;2023-07-08T09:03:37;96583.06;;;24.80;39.43
77207;BME280;66190;50.708;7.906;2023-07-08T09:06:31;96594.09;;;24.80;40.41
77207;BME280;66190;50.708;7.906;2023-07-08T09:09:02;96592.59;;;24.93;39.85
77207;BME280;66190;50.708;7.906;2023-07-08T09:14:03;96580.16;;;25.00;39.19
77207;BME280;66190;50.708;7.906;2023-07-08T09:19:35;96586.56;;;25.14;38.15
77207;BME280;66190;50.708;7.906;2023-07-08T09:24:53;96590.22;;;25.33;41.34
77207;BME280;66190;50.708;7.906;2023-07-08T09:27:21;96578.00;;;25.44;41.37
77207;BME280;66190;50.708;7.906;2023-07-08T09:29:47;96580.34;;;25.56;39.11
77207;BME280;66190;50.708;7.906;2023-07-08T09:32:19;96589.06;;;25.63;38.34
77207;BME280;66190;50.708;7.906;2023-07-08T09:37:33;96593.13;;;25.70;38.75
77207;BME280;66190;50.708;7.906;2023-07-08T09:40:01;96589.22;;;25.76;39.10
77207;BME280;66190;50.708;7.906;2023-07-08T09:42:31;96588.53;;;25.85;38.10
77207;BME280;66190;50.708;7.906;2023-07-08T09:44:59;96582.88;;;25.76;38.15
77207;BME280;66190;50.708;7.906;2023-07-08T09:47:29;96585.91;;;25.74;38.69
77207;BME280;66190;50.708;7.906;2023-07-08T09:49:59;96600.00;;;25.73;38.67
77207;BME280;66190;50.708;7.906;2023-07-08T09:52:25;96594.31;;;25.64;36.17
77207;BME280;66190;50.708;7.906;2023-07-08T09:54:51;96603.47;;;25.78;38.09
77207;BME280;66190;50.708;7.906;2023-07-08T09:57:28;96590.69;;;25.88;37.77
77207;BME280;66190;50.708;7.906;2023-07-08T10:00:17;96602.78;;;25.92;38.68
77207;BME280;66190;50.708;7.906;2023-07-08T10:02:46;96594.09;;;26.03;39.56
77207;BME280;66190;50.708;7.906;2023-07-08T10:05:22;96588.38;;;26.18;38.79
77207;BME280;66190;50.708;7.906;2023-07-08T10:07:48;96588.16;;;26.15;39.77
77207;BME280;66190;50.708;7.906;2023-07-08T10:10:19;96588.00;;;26.25;38.91
77207;BME280;66190;50.708;7.906;2023-07-08T10:12:58;96581.34;;;26.26;39.01
77207;BME280;66190;50.708;7.906;2023-07-08T10:15:35;96586.44;;;26.37;38.46
77207;BME280;66190;50.708;7.906;2023-07-08T10:18:02;96585.31;;;26.38;37.76
77207;BME280;66190;50.708;7.906;2023-07-08T10:20:43;96582.78;;;26.42;39.41
77207;BME280;66190;50.708;7.906;2023-07-08T10:26:17;96567.22;;;26.64;40.00
77207;BME280;66190;50.708;7.906;2023-07-08T10:28:57;96574.16;;;26.62;38.24
77207;BME280;66190;50.708;7.906;2023-07-08T10:31:36;96578.19;;;26.69;39.74
77207;BME280;66190;50.708;7.906;2023-07-08T10:42:46;96561.31;;;27.03;39.09
77207;BME280;66190;50.708;7.906;2023-07-08T10:45:32;96565.09;;;27.07;38.92
77207;BME280;66190;50.708;7.906;2023-07-08T10:48:13;96563.88;;;27.13;40.01
77207;BME280;66190;50.708;7.906;2023-07-08T10:50:51;96560.41;;;27.21;40.34
77207;BME280;66190;50.708;7.906;2023-07-08T10:56:16;96559.44;;;27.44;38.52
77207;BME280;66190;50.708;7.906;2023-07-08T11:03:56;96560.38;;;27.53;39.79
77207;BME280;66190;50.708;7.906;2023-07-08T11:09:02;96567.81;;;27.66;37.46
77207;BME280;66190;50.708;7.906;2023-07-08T11:11:55;96565.06;;;27.66;37.23
77207;BME280;66190;50.708;7.906;2023-07-08T11:14:28;96558.94;;;27.69;38.85
77207;BME280;66190;50.708;7.906;2023-07-08T11:17:14;96562.59;;;27.78;38.02
77207;BME280;66190;50.708;7.906;2023-07-08T11:19:49;96566.78;;;27.89;39.65
77207;BME280;66190;50.708;7.906;2023-07-08T11:22:20;96573.25;;;27.99;38.03
77207;BME280;66190;50.708;7.906;2023-07-08T11:24:48;96563.03;;;27.99;38.58
77207;BME280;66190;50.708;7.906;2023-07-08T11:27:21;96564.59;;;28.14;37.17
77207;BME280;66190;50.708;7.906;2023-07-08T11:29:55;96572.63;;;28.02;36.40
77207;BME280;66190;50.708;7.906;2023-07-08T11:32:26;96568.00;;;28.11;38.04
77207;BME280;66190;50.708;7.906;2023-07-08T11:34:54;96563.19;;;28.16;37.08
77207;BME280;66190;50.708;7.906;2023-07-08T11:37:21;96570.47;;;28.12;36.03
77207;BME280;66190;50.708;7.906;2023-07-08T11:40:09;96564.59;;;28.14;37.33
77207;BME280;66190;50.708;7.906;2023-07-08T11:42:43;96570.72;;;28.24;35.53
77207;BME280;66190;50.708;7.906;2023-07-08T11:45:34;96568.66;;;28.30;34.71
77207;BME280;66190;50.708;7.906;2023-07-08T11:50:40;96562.81;;;28.31;35.62
77207;BME280;66190;50.708;7.906;2023-07-08T11:53:11;96567.03;;;28.29;35.29
77207;BME280;66190;50.708;7.906;2023-07-08T11:58:07;96559.81;;;28.41;36.26
77207;BME280;66190;50.708;7.906;2023-07-08T12:00:33;96563.09;;;28.43;35.92
77207;BME280;66190;50.708;7.906;2023-07-08T12:03:31;96563.88;;;28.57;35.79
77207;BME280;66190;50.708;7.906;2023-07-08T12:05:49;96570.00;;;28.68;36.46
77207;BME280;66190;50.708;7.906;2023-07-08T12:08:18;96569.03;;;28.72;37.00
77207;BME280;66190;50.708;7.906;2023-07-08T12:10:50;96573.66;;;28.77;36.50
77207;BME280;66190;50.708;7.906;2023-07-08T12:13:23;96569.28;;;28.84;36.79
77207;BME280;66190;50.708;7.906;2023-07-08T12:15:49;96566.22;;;28.86;36.69
77207;BME280;66190;50.708;7.906;2023-07-08T12:18:19;96571.34;;;29.01;37.88
77207;BME280;66190;50.708;7.906;2023-07-08T12:20:47;96570.72;;;29.04;36.09
77207;BME280;66190;50.708;7.906;2023-07-08T12:23:19;96576.50;;;29.16;38.71
77207;BME280;66190;50.708;7.906;2023-07-08T12:25:46;96574.44;;;29.22;37.33
77207;BME280;66190;50.708;7.906;2023-07-08T12:28:12;96569.72;;;29.22;35.57
77207;BME280;66190;50.708;7.906;2023-07-08T12:30:38;96568.59;;;29.32;35.01
77207;BME280;66190;50.708;7.906;2023-07-08T12:33:11;96578.91;;;29.31;34.65
77207;BME280;66190;50.708;7.906;2023-07-08T12:35:37;96570.13;;;29.38;36.62
77207;BME280;66190;50.708;7.906;2023-07-08T12:38:06;96570.28;;;29.41;34.68
77207;BME280;66190;50.708;7.906;2023-07-08T12:40:37;96567.09;;;29.56;36.68
77207;BME280;66190;50.708;7.906;2023-07-08T12:43:02;96570.88;;;29.60;37.97
77207;BME280;66190;50.708;7.906;2023-07-08T12:45:30;96563.84;;;29.63;35.56
77207;BME280;66190;50.708;7.906;2023-07-08T12:47:56;96563.03;;;29.62;36.16
77207;BME280;66190;50.708;7.906;2023-07-08T12:50:21;96566.75;;;29.58;34.66
77207;BME280;66190;50.708;7.906;2023-07-08T12:52:47;96564.84;;;29.67;34.76
77207;BME280;66190;50.708;7.906;2023-07-08T12:55:14;96566.66;;;29.71;34.74
77207;BME280;66190;50.708;7.906;2023-07-08T12:57:47;96564.22;;;29.70;34.18
77207;BME280;66190;50.708;7.906;2023-07-08T13:00:21;96560.94;;;29.68;33.95
77207;BME280;66190;50.708;7.906;2023-07-08T13:02:56;96561.63;;;29.82;35.29
77207;BME280;66190;50.708;7.906;2023-07-08T13:05:23;96565.09;;;29.87;34.66
77207;BME280;66190;50.708;7.906;2023-07-08T13:07:50;96566.06;;;29.83;33.95
77207;BME280;66190;50.708;7.906;2023-07-08T13:10:19;96575.06;;;29.88;34.99
77207;BME280;66190;50.708;7.906;2023-07-08T13:12:47;96566.59;;;30.02;33.97
77207;BME280;66190;50.708;7.906;2023-07-08T13:15:21;96571.50;;;30.13;34.06
77207;BME280;66190;50.708;7.906;2023-07-08T13:17:48;96558.28;;;30.19;32.70
77207;BME280;66190;50.708;7.906;2023-07-08T13:20:15;96566.13;;;30.08;33.39
77207;BME280;66190;50.708;7.906;2023-07-08T13:22:42;96554.84;;;29.96;33.93
77207;BME280;66190;50.708;7.906;2023-07-08T13:25:17;96561.84;;;30.02;33.81
77207;BME280;66190;50.708;7.906;2023-07-08T13:27:54;96564.50;;;30.07;33.88
77207;BME280;66190;50.708;7.906;2023-07-08T13:30:24;96559.63;;;30.22;34.10
77207;BME280;66190;50.708;7.906;2023-07-08T13:32:58;96565.03;;;30.27;32.97
77207;BME280;66190;50.708;7.906;2023-07-08T13:35:34;96552.28;;;30.43;34.65
77207;BME280;66190;50.708;7.906;2023-07-08T13:38:01;96557.84;;;30.51;33.32
77207;BME280;66190;50.708;7.906;2023-07-08T13:40:29;96555.06;;;30.51;32.32
77207;BME280;66190;50.708;7.906;2023-07-08T13:42:55;96555.72;;;30.40;32.50
77207;BME280;66190;50.708;7.906;2023-07-08T13:45:27;96552.63;;;30.50;33.48
77207;BME280;66190;50.708;7.906;2023-07-08T13:48:11;96555.09;;;30.60;32.51
77207;BME280;66190;50.708;7.906;2023-07-08T13:51:02;96559.63;;;30.73;32.43